sensor_id;sensor_type;location;lat;lon;timestamp;temperature;humidity
21861;DHT22;11095;48.066;8.540;2024-02-23T00:01:39;4.60;99.90
21861;DHT22;11095;48.066;8.540;2024-02-23T00:04:04;4.40;99.90
21861;DHT22;11095;48.066;8.540;2024-02-23T00:06:32;4.40;99.90
21861;DHT22;11095;48.066;8.540;2024-02-23T00:08:58;4.20;99.90
21861;DHT22;11095;48.066;8.540;2024-02-23T00:11:24;4.20;99.90
21861;DHT22;11095;48.066;8.540;2024-02-23T00:13:49;4.10;99.90
21861;DHT22;11095;48.066;8.540;2024-02-23T00:16:15;4.10;99.90
21861;DHT22;11095;48.066;8.540;2024-02-23T00:18:41;4.00;99.90
21861;DHT22;11095;48.066;8.540;2024-02-23T00:21:06;4.00;99.90
21861;DHT22;11095;48.066;8.540;2024-02-23T00:23:32;4.00;99.90
21861;DHT22;11095;48.066;8.540;2024-02-23T00:25:57;3.90;99.90
21861;DHT22;11095;48.066;8.540;2024-02-23T00:28:23;3.90;99.90
21861;DHT22;11095;48.066;8.540;2024-02-23T00:30:48;3.90;99.90
21861;DHT22;11095;48.066;8.540;2024-02-23T00:33:14;3.90;99.90
21861;DHT22;11095;48.066;8.540;2024-02-23T00:35:40;3.90;99.90
21861;DHT22;11095;48.066;8.540;2024-02-23T00:38:05;3.80;99.90
21861;DHT22;11095;48.066;8.540;2024-02-23T00:40:33;3.80;99.90
21861;DHT22;11095;48.066;8.540;2024-02-23T00:42:58;3.70;99.90
21861;DHT22;11095;48.066;8.540;2024-02-23T00:45:25;3.60;99.90
21861;DHT22;11095;48.066;8.540;2024-02-23T00:47:51;3.60;99.90
21861;DHT22;11095;48.066;8.540;2024-02-23T00:50:16;3.60;99.90
21861;DHT22;11095;48.066;8.540;2024-02-23T00:52:42;3.50;99.90
21861;DHT22;11095;48.066;8.540;2024-02-23T00:55:08;3.50;99.90
21861;DHT22;11095;48.066;8.540;2024-02-23T00:57:34;3.50;99.90
21861;DHT22;11095;48.066;8.540;2024-02-23T01:00:01;3.50;99.90
21861;DHT22;11095;48.066;8.540;2024-02-23T01:02:28;3.50;99.90
21861;DHT22;11095;48.066;8.540;2024-02-23T01:04:54;3.50;99.90
21861;DHT22;11095;48.066;8.540;2024-02-23T01:07:22;3.40;99.90
21861;DHT22;11095;48.066;8.540;2024-02-23T01:09:48;3.40;99.90
21861;DHT22;11095;48.066;8.540;2024-02-23T01:12:14;3.40;99.90
21861;DHT22;11095;48.066;8.540;2024-02-23T01:14:39;3.40;99.90
21861;DHT22;11095;48.066;8.540;2024-02-23T01:17:05;3.40;99.90
21861;DHT22;11095;48.066;8.540;2024-02-23T01:19:30;3.40;99.90
21861;DHT22;11095;48.066;8.540;2024-02-23T01:21:56;3.30;99.90
21861;DHT22;11095;48.066;8.540;2024-02-23T01:24:28;3.30;99.90
21861;DHT22;11095;48.066;8.540;2024-02-23T01:26:55;3.30;99.90
21861;DHT22;11095;48.066;8.540;2024-02-23T01:29:21;3.20;99.90
21861;DHT22;11095;48.066;8.540;2024-02-23T01:31:48;3.20;99.90
21861;DHT22;11095;48.066;8.540;2024-02-23T01:34:14;3.20;99.90
21861;DHT22;11095;48.066;8.540;2024-02-23T01:36:39;3.20;99.90
21861;DHT22;11095;48.066;8.540;2024-02-23T01:39:05;3.20;99.90
21861;DHT22;11095;48.066;8.540;2024-02-23T01:41:31;3.10;99.90
21861;DHT22;11095;48.066;8.540;2024-02-23T01:43:57;3.10;99.90
21861;DHT22;11095;48.066;8.540;2024-02-23T01:46:23;3.10;99.90
21861;DHT22;11095;48.066;8.540;2024-02-23T01:48:49;3.00;99.90
21861;DHT22;11095;48.066;8.540;2024-02-23T01:51:14;3.00;99.90
21861;DHT22;11095;48.066;8.540;2024-02-23T01:53:40;3.00;99.90
21861;DHT22;11095;48.066;8.540;2024-02-23T01:56:06;3.00;99.90
21861;DHT22;11095;48.066;8.540;2024-02-23T01:58:33;3.00;99.90
21861;DHT22;11095;48.066;8.540;2024-02-23T02:01:00;3.00;99.90
21861;DHT22;11095;48.066;8.540;2024-02-23T02:03:26;2.90;99.90
21861;DHT22;11095;48.066;8.540;2024-02-23T02:05:53;2.90;99.90
21861;DHT22;11095;48.066;8.540;2024-02-23T02:08:19;2.90;99.90
21861;DHT22;11095;48.066;8.540;2024-02-23T02:10:45;2.90;99.90
21861;DHT22;11095;48.066;8.540;2024-02-23T02:13:12;2.80;99.90
21861;DHT22;11095;48.066;8.540;2024-02-23T02:15:38;2.80;99.90
21861;DHT22;11095;48.066;8.540;2024-02-23T02:18:04;2.80;99.90
21861;DHT22;11095;48.066;8.540;2024-02-23T02:20:33;2.80;99.90
21861;DHT22;11095;48.066;8.540;2024-02-23T02:22:59;2.80;99.90
21861;DHT22;11095;48.066;8.540;2024-02-23T02:25:24;2.80;99.90
21861;DHT22;11095;48.066;8.540;2024-02-23T02:27:50;2.70;99.90
21861;DHT22;11095;48.066;8.540;2024-02-23T02:30:16;2.80;99.90
21861;DHT22;11095;48.066;8.540;2024-02-23T02:32:41;2.70;99.90
21861;DHT22;11095;48.066;8.540;2024-02-23T02:35:07;2.80;99.90
21861;DHT22;11095;48.066;8.540;2024-02-23T02:37:33;2.80;99.90
21861;DHT22;11095;48.066;8.540;2024-02-23T02:39:59;2.70;99.90
21861;DHT22;11095;48.066;8.540;2024-02-23T02:42:25;2.70;99.90
21861;DHT22;11095;48.066;8.540;2024-02-23T02:44:51;2.70;99.90
21861;DHT22;11095;48.066;8.540;2024-02-23T02:47:16;2.60;99.90
21861;DHT22;11095;48.066;8.540;2024-02-23T02:49:42;2.60;99.90
21861;DHT22;11095;48.066;8.540;2024-02-23T02:52:08;2.60;99.90
21861;DHT22;11095;48.066;8.540;2024-02-23T02:54:36;2.60;99.90
21861;DHT22;11095;48.066;8.540;2024-02-23T02:57:01;2.60;99.90
21861;DHT22;11095;48.066;8.540;2024-02-23T02:59:27;2.70;99.90
21861;DHT22;11095;48.066;8.540;2024-02-23T03:01:52;2.70;99.90
21861;DHT22;11095;48.066;8.540;2024-02-23T03:04:18;2.70;99.90
21861;DHT22;11095;48.066;8.540;2024-02-23T03:06:43;2.70;99.90
21861;DHT22;11095;48.066;8.540;2024-02-23T03:09:09;2.80;99.90
21861;DHT22;11095;48.066;8.540;2024-02-23T03:11:35;2.80;99.90
21861;DHT22;11095;48.066;8.540;2024-02-23T03:14:01;2.80;99.90
21861;DHT22;11095;48.066;8.540;2024-02-23T03:16:27;2.80;99.90
21861;DHT22;11095;48.066;8.540;2024-02-23T03:18:54;2.80;99.90
21861;DHT22;11095;48.066;8.540;2024-02-23T03:21:20;2.80;99.90
21861;DHT22;11095;48.066;8.540;2024-02-23T03:23:45;2.90;99.90
21861;DHT22;11095;48.066;8.540;2024-02-23T03:26:11;2.90;99.90
21861;DHT22;11095;48.066;8.540;2024-02-23T03:28:36;2.90;99.90
21861;DHT22;11095;48.066;8.540;2024-02-23T03:31:02;2.90;99.90
21861;DHT22;11095;48.066;8.540;2024-02-23T03:33:28;2.90;99.90
21861;DHT22;11095;48.066;8.540;2024-02-23T03:35:53;2.90;99.90
21861;DHT22;11095;48.066;8.540;2024-02-23T03:38:19;2.90;99.90
21861;DHT22;11095;48.066;8.540;2024-02-23T03:40:44;2.90;99.90
21861;DHT22;11095;48.066;8.540;2024-02-23T03:43:10;2.90;99.90
21861;DHT22;11095;48.066;8.540;2024-02-23T03:45:36;2.90;99.90
21861;DHT22;11095;48.066;8.540;2024-02-23T03:48:03;2.90;99.90
21861;DHT22;11095;48.066;8.540;2024-02-23T03:50:30;2.90;99.90
21861;DHT22;11095;48.066;8.540;2024-02-23T03:52:55;2.90;99.90
21861;DHT22;11095;48.066;8.540;2024-02-23T03:55:21;2.90;99.90
21861;DHT22;11095;48.066;8.540;2024-02-23T03:57:47;2.90;99.90
21861;DHT22;11095;48.066;8.540;2024-02-23T04:00:13;2.80;99.90
21861;DHT22;11095;48.066;8.540;2024-02-23T04:02:39;2.80;99.90
21861;DHT22;11095;48.066;8.540;2024-02-23T04:05:05;2.80;99.90
21861;DHT22;11095;48.066;8.540;2024-02-23T04:07:31;2.70;99.90
21861;DHT22;11095;48.066;8.540;2024-02-23T04:09:56;2.70;99.90
21861;DHT22;11095;48.066;8.540;2024-02-23T04:12:22;2.60;99.90
21861;DHT22;11095;48.066;8.540;2024-02-23T04:14:47;2.60;99.90
21861;DHT22;11095;48.066;8.540;2024-02-23T04:17:13;2.50;99.90
21861;DHT22;11095;48.066;8.540;2024-02-23T04:19:40;2.50;99.90
21861;DHT22;11095;48.066;8.540;2024-02-23T04:22:06;2.50;99.90
21861;DHT22;11095;48.066;8.540;2024-02-23T04:24:38;2.50;99.90
21861;DHT22;11095;48.066;8.540;2024-02-23T04:27:05;2.40;99.90
21861;DHT22;11095;48.066;8.540;2024-02-23T04:29:30;2.40;99.90
21861;DHT22;11095;48.066;8.540;2024-02-23T04:31:57;2.40;99.90
21861;DHT22;11095;48.066;8.540;2024-02-23T04:34:23;2.30;99.90
21861;DHT22;11095;48.066;8.540;2024-02-23T04:36:49;2.30;99.90
21861;DHT22;11095;48.066;8.540;2024-02-23T04:39:14;2.30;99.90
21861;DHT22;11095;48.066;8.540;2024-02-23T04:41:40;2.30;99.90
21861;DHT22;11095;48.066;8.540;2024-02-23T04:44:05;2.30;99.90
21861;DHT22;11095;48.066;8.540;2024-02-23T04:46:31;2.30;99.90
21861;DHT22;11095;48.066;8.540;2024-02-23T04:48:57;2.30;99.90
21861;DHT22;11095;48.066;8.540;2024-02-23T04:51:23;2.20;99.90
21861;DHT22;11095;48.066;8.540;2024-02-23T04:53:49;2.20;99.90
21861;DHT22;11095;48.066;8.540;2024-02-23T04:56:15;2.10;99.90
21861;DHT22;11095;48.066;8.540;2024-02-23T04:58:40;2.20;99.90
21861;DHT22;11095;48.066;8.540;2024-02-23T05:01:08;2.20;99.90
21861;DHT22;11095;48.066;8.540;2024-02-23T05:03:33;2.10;99.90
21861;DHT22;11095;48.066;8.540;2024-02-23T05:05:59;2.10;99.90
21861;DHT22;11095;48.066;8.540;2024-02-23T05:08:25;2.10;99.90
21861;DHT22;11095;48.066;8.540;2024-02-23T05:10:53;2.10;99.90
21861;DHT22;11095;48.066;8.540;2024-02-23T05:13:19;2.10;99.90
21861;DHT22;11095;48.066;8.540;2024-02-23T05:15:44;2.10;99.90
21861;DHT22;11095;48.066;8.540;2024-02-23T05:18:10;2.10;99.90
21861;DHT22;11095;48.066;8.540;2024-02-23T05:20:35;2.10;99.90
21861;DHT22;11095;48.066;8.540;2024-02-23T05:23:01;2.10;99.90
21861;DHT22;11095;48.066;8.540;2024-02-23T05:25:27;2.00;99.90
21861;DHT22;11095;48.066;8.540;2024-02-23T05:27:53;2.00;99.90
21861;DHT22;11095;48.066;8.540;2024-02-23T05:30:19;1.90;99.90
21861;DHT22;11095;48.066;8.540;2024-02-23T05:32:44;1.90;99.90
21861;DHT22;11095;48.066;8.540;2024-02-23T05:35:10;1.90;99.90
21861;DHT22;11095;48.066;8.540;2024-02-23T05:37:36;1.90;99.90
21861;DHT22;11095;48.066;8.540;2024-02-23T05:40:03;1.90;99.90
21861;DHT22;11095;48.066;8.540;2024-02-23T05:42:32;1.90;99.90
21861;DHT22;11095;48.066;8.540;2024-02-23T05:44:58;1.90;99.90
21861;DHT22;11095;48.066;8.540;2024-02-23T05:47:23;1.90;99.90
21861;DHT22;11095;48.066;8.540;2024-02-23T05:49:50;1.90;99.90
21861;DHT22;11095;48.066;8.540;2024-02-23T05:52:16;1.90;99.90
21861;DHT22;11095;48.066;8.540;2024-02-23T05:54:41;1.80;99.90
21861;DHT22;11095;48.066;8.540;2024-02-23T05:57:07;1.80;99.90
21861;DHT22;11095;48.066;8.540;2024-02-23T05:59:32;1.80;99.90
21861;DHT22;11095;48.066;8.540;2024-02-23T06:01:58;1.80;99.90
21861;DHT22;11095;48.066;8.540;2024-02-23T06:04:24;1.90;99.90
21861;DHT22;11095;48.066;8.540;2024-02-23T06:06:49;1.90;99.90
21861;DHT22;11095;48.066;8.540;2024-02-23T06:09:15;1.90;99.90
21861;DHT22;11095;48.066;8.540;2024-02-23T06:11:41;1.90;99.90
21861;DHT22;11095;48.066;8.540;2024-02-23T06:14:07;1.90;99.90
21861;DHT22;11095;48.066;8.540;2024-02-23T06:16:33;1.90;99.90
21861;DHT22;11095;48.066;8.540;2024-02-23T06:18:59;1.80;99.90
21861;DHT22;11095;48.066;8.540;2024-02-23T06:21:24;1.80;99.90
21861;DHT22;11095;48.066;8.540;2024-02-23T06:23:50;1.80;99.90
21861;DHT22;11095;48.066;8.540;2024-02-23T06:26:16;1.80;99.90
21861;DHT22;11095;48.066;8.540;2024-02-23T06:28:42;1.80;99.90
21861;DHT22;11095;48.066;8.540;2024-02-23T06:31:08;1.80;99.90
21861;DHT22;11095;48.066;8.540;2024-02-23T06:33:34;1.80;99.90
21861;DHT22;11095;48.066;8.540;2024-02-23T06:35:59;1.80;99.90
21861;DHT22;11095;48.066;8.540;2024-02-23T06:38:26;1.80;99.90
21861;DHT22;11095;48.066;8.540;2024-02-23T06:40:52;1.80;99.90
21861;DHT22;11095;48.066;8.540;2024-02-23T06:43:17;1.80;99.90
21861;DHT22;11095;48.066;8.540;2024-02-23T06:45:43;1.80;99.90
21861;DHT22;11095;48.066;8.540;2024-02-23T06:48:09;1.80;99.90
21861;DHT22;11095;48.066;8.540;2024-02-23T06:50:35;1.80;99.90
21861;DHT22;11095;48.066;8.540;2024-02-23T06:53:01;1.80;99.90
21861;DHT22;11095;48.066;8.540;2024-02-23T06:55:27;1.80;99.90
21861;DHT22;11095;48.066;8.540;2024-02-23T06:57:54;1.90;99.90
21861;DHT22;11095;48.066;8.540;2024-02-23T07:00:20;1.90;99.90
21861;DHT22;11095;48.066;8.540;2024-02-23T07:02:47;1.90;99.90
21861;DHT22;11095;48.066;8.540;2024-02-23T07:05:12;2.00;99.90
21861;DHT22;11095;48.066;8.540;2024-02-23T07:07:39;2.00;99.90
21861;DHT22;11095;48.066;8.540;2024-02-23T07:10:06;2.00;99.90
21861;DHT22;11095;48.066;8.540;2024-02-23T07:12:32;2.10;99.90
21861;DHT22;11095;48.066;8.540;2024-02-23T07:14:58;2.20;99.90
21861;DHT22;11095;48.066;8.540;2024-02-23T07:17:23;2.30;99.90
21861;DHT22;11095;48.066;8.540;2024-02-23T07:19:49;2.40;99.90
21861;DHT22;11095;48.066;8.540;2024-02-23T07:22:16;2.40;99.90
21861;DHT22;11095;48.066;8.540;2024-02-23T07:24:43;2.40;99.90
21861;DHT22;11095;48.066;8.540;2024-02-23T07:27:09;2.40;99.90
21861;DHT22;11095;48.066;8.540;2024-02-23T07:29:35;2.30;99.90
21861;DHT22;11095;48.066;8.540;2024-02-23T07:32:01;2.30;99.90
21861;DHT22;11095;48.066;8.540;2024-02-23T07:34:26;2.20;99.90
21861;DHT22;11095;48.066;8.540;2024-02-23T07:36:52;2.10;99.90
21861;DHT22;11095;48.066;8.540;2024-02-23T07:39:19;2.10;99.90
21861;DHT22;11095;48.066;8.540;2024-02-23T07:41:45;2.10;99.90
21861;DHT22;11095;48.066;8.540;2024-02-23T07:44:10;2.10;99.90
21861;DHT22;11095;48.066;8.540;2024-02-23T07:46:36;2.20;99.90
21861;DHT22;11095;48.066;8.540;2024-02-23T07:49:02;2.10;99.90
21861;DHT22;11095;48.066;8.540;2024-02-23T07:51:28;2.20;99.90
21861;DHT22;11095;48.066;8.540;2024-02-23T07:53:54;2.30;99.90
21861;DHT22;11095;48.066;8.540;2024-02-23T07:56:20;2.30;99.90
21861;DHT22;11095;48.066;8.540;2024-02-23T07:58:46;2.40;99.90
21861;DHT22;11095;48.066;8.540;2024-02-23T08:01:12;2.50;99.90
21861;DHT22;11095;48.066;8.540;2024-02-23T08:03:40;2.60;99.90
21861;DHT22;11095;48.066;8.540;2024-02-23T08:06:05;2.70;99.90
21861;DHT22;11095;48.066;8.540;2024-02-23T08:08:31;2.80;99.90
21861;DHT22;11095;48.066;8.540;2024-02-23T08:11:00;2.80;99.90
21861;DHT22;11095;48.066;8.540;2024-02-23T08:13:26;3.00;99.90
21861;DHT22;11095;48.066;8.540;2024-02-23T08:15:52;3.20;99.90
21861;DHT22;11095;48.066;8.540;2024-02-23T08:18:17;3.40;99.90
21861;DHT22;11095;48.066;8.540;2024-02-23T08:20:43;3.70;99.90
21861;DHT22;11095;48.066;8.540;2024-02-23T08:23:09;3.90;99.90
21861;DHT22;11095;48.066;8.540;2024-02-23T08:25:35;4.20;99.90
21861;DHT22;11095;48.066;8.540;2024-02-23T08:28:01;4.30;99.90
21861;DHT22;11095;48.066;8.540;2024-02-23T08:30:26;4.50;99.90
21861;DHT22;11095;48.066;8.540;2024-02-23T08:32:52;4.60;99.90
21861;DHT22;11095;48.066;8.540;2024-02-23T08:35:17;4.80;99.90
21861;DHT22;11095;48.066;8.540;2024-02-23T08:37:44;4.80;99.90
21861;DHT22;11095;48.066;8.540;2024-02-23T08:40:09;4.80;99.90
21861;DHT22;11095;48.066;8.540;2024-02-23T08:42:35;4.80;99.90
21861;DHT22;11095;48.066;8.540;2024-02-23T08:45:01;4.80;99.90
21861;DHT22;11095;48.066;8.540;2024-02-23T08:47:27;4.90;99.90
21861;DHT22;11095;48.066;8.540;2024-02-23T08:49:57;5.20;99.90
21861;DHT22;11095;48.066;8.540;2024-02-23T08:52:23;5.40;99.90
21861;DHT22;11095;48.066;8.540;2024-02-23T08:54:48;5.50;99.90
21861;DHT22;11095;48.066;8.540;2024-02-23T08:57:14;5.70;99.90
21861;DHT22;11095;48.066;8.540;2024-02-23T08:59:42;5.90;99.90
21861;DHT22;11095;48.066;8.540;2024-02-23T09:02:08;5.90;99.90
21861;DHT22;11095;48.066;8.540;2024-02-23T09:04:35;5.70;99.90
21861;DHT22;11095;48.066;8.540;2024-02-23T09:07:01;5.70;99.90
21861;DHT22;11095;48.066;8.540;2024-02-23T09:09:27;5.90;99.90
21861;DHT22;11095;48.066;8.540;2024-02-23T09:11:52;6.20;99.90
21861;DHT22;11095;48.066;8.540;2024-02-23T09:14:18;6.40;99.90
21861;DHT22;11095;48.066;8.540;2024-02-23T09:16:44;6.60;99.90
21861;DHT22;11095;48.066;8.540;2024-02-23T09:19:11;7.00;99.90
21861;DHT22;11095;48.066;8.540;2024-02-23T09:21:37;7.10;99.90
21861;DHT22;11095;48.066;8.540;2024-02-23T09:24:03;7.10;99.90
21861;DHT22;11095;48.066;8.540;2024-02-23T09:26:29;7.50;99.90
21861;DHT22;11095;48.066;8.540;2024-02-23T09:28:55;7.50;99.90
21861;DHT22;11095;48.066;8.540;2024-02-23T09:31:21;7.70;99.90
21861;DHT22;11095;48.066;8.540;2024-02-23T09:33:46;7.80;99.90
21861;DHT22;11095;48.066;8.540;2024-02-23T09:36:14;7.70;99.90
21861;DHT22;11095;48.066;8.540;2024-02-23T09:38:39;7.50;99.90
21861;DHT22;11095;48.066;8.540;2024-02-23T09:41:18;7.10;99.90
21861;DHT22;11095;48.066;8.540;2024-02-23T09:43:44;6.90;99.90
21861;DHT22;11095;48.066;8.540;2024-02-23T09:46:11;6.90;99.90
21861;DHT22;11095;48.066;8.540;2024-02-23T09:48:38;6.80;99.90
21861;DHT22;11095;48.066;8.540;2024-02-23T09:51:07;6.70;99.90
21861;DHT22;11095;48.066;8.540;2024-02-23T09:53:37;6.50;99.90
21861;DHT22;11095;48.066;8.540;2024-02-23T09:56:04;6.30;99.90
21861;DHT22;11095;48.066;8.540;2024-02-23T09:58:36;6.10;99.90
21861;DHT22;11095;48.066;8.540;2024-02-23T10:01:03;5.80;99.90
21861;DHT22;11095;48.066;8.540;2024-02-23T10:03:30;5.50;99.90
21861;DHT22;11095;48.066;8.540;2024-02-23T10:06:01;5.40;99.90
21861;DHT22;11095;48.066;8.540;2024-02-23T10:08:28;5.30;99.90
21861;DHT22;11095;48.066;8.540;2024-02-23T10:10:54;5.20;99.90
21861;DHT22;11095;48.066;8.540;2024-02-23T10:13:22;5.20;99.90
21861;DHT22;11095;48.066;8.540;2024-02-23T10:15:53;5.20;99.90
21861;DHT22;11095;48.066;8.540;2024-02-23T10:18:21;5.20;99.90
21861;DHT22;11095;48.066;8.540;2024-02-23T10:20:47;5.10;99.90
21861;DHT22;11095;48.066;8.540;2024-02-23T10:23:13;5.00;99.90
21861;DHT22;11095;48.066;8.540;2024-02-23T10:25:39;5.00;99.90
21861;DHT22;11095;48.066;8.540;2024-02-23T10:28:07;4.90;99.90
21861;DHT22;11095;48.066;8.540;2024-02-23T10:30:36;4.90;99.90
21861;DHT22;11095;48.066;8.540;2024-02-23T10:33:01;4.90;99.90
21861;DHT22;11095;48.066;8.540;2024-02-23T10:35:29;5.00;99.90
21861;DHT22;11095;48.066;8.540;2024-02-23T10:37:56;5.10;99.90
21861;DHT22;11095;48.066;8.540;2024-02-23T10:40:22;5.10;99.90
21861;DHT22;11095;48.066;8.540;2024-02-23T10:42:50;5.10;99.90
21861;DHT22;11095;48.066;8.540;2024-02-23T10:45:21;5.20;99.90
21861;DHT22;11095;48.066;8.540;2024-02-23T10:47:53;5.40;99.90
21861;DHT22;11095;48.066;8.540;2024-02-23T10:50:22;5.60;99.90
21861;DHT22;11095;48.066;8.540;2024-02-23T10:52:49;5.70;99.90
21861;DHT22;11095;48.066;8.540;2024-02-23T10:55:15;5.80;99.90
21861;DHT22;11095;48.066;8.540;2024-02-23T10:57:42;5.90;99.90
21861;DHT22;11095;48.066;8.540;2024-02-23T11:00:09;5.90;99.90
21861;DHT22;11095;48.066;8.540;2024-02-23T11:02:45;6.00;99.90
21861;DHT22;11095;48.066;8.540;2024-02-23T11:05:12;5.70;99.90
21861;DHT22;11095;48.066;8.540;2024-02-23T11:07:39;5.60;99.90
21861;DHT22;11095;48.066;8.540;2024-02-23T11:10:06;5.50;99.90
21861;DHT22;11095;48.066;8.540;2024-02-23T11:12:33;5.60;99.90
21861;DHT22;11095;48.066;8.540;2024-02-23T11:14:59;5.90;99.90
21861;DHT22;11095;48.066;8.540;2024-02-23T11:17:32;6.20;99.90
21861;DHT22;11095;48.066;8.540;2024-02-23T11:20:02;6.40;99.90
21861;DHT22;11095;48.066;8.540;2024-02-23T11:22:32;6.60;99.90
21861;DHT22;11095;48.066;8.540;2024-02-23T11:25:06;6.80;99.90
21861;DHT22;11095;48.066;8.540;2024-02-23T11:27:42;6.80;99.90
21861;DHT22;11095;48.066;8.540;2024-02-23T11:30:09;6.80;99.90
21861;DHT22;11095;48.066;8.540;2024-02-23T11:32:47;6.70;99.90
21861;DHT22;11095;48.066;8.540;2024-02-23T11:35:15;6.60;99.90
21861;DHT22;11095;48.066;8.540;2024-02-23T11:37:57;6.40;99.90
21861;DHT22;11095;48.066;8.540;2024-02-23T11:40:27;6.30;99.90
21861;DHT22;11095;48.066;8.540;2024-02-23T11:42:55;6.20;99.90
21861;DHT22;11095;48.066;8.540;2024-02-23T11:45:21;6.20;99.90
21861;DHT22;11095;48.066;8.540;2024-02-23T11:47:47;6.10;99.90
21861;DHT22;11095;48.066;8.540;2024-02-23T11:50:13;6.10;99.90
21861;DHT22;11095;48.066;8.540;2024-02-23T11:52:40;6.10;99.90
21861;DHT22;11095;48.066;8.540;2024-02-23T11:55:07;6.20;99.90
21861;DHT22;11095;48.066;8.540;2024-02-23T11:57:34;6.10;99.90
21861;DHT22;11095;48.066;8.540;2024-02-23T12:00:04;6.10;99.90
21861;DHT22;11095;48.066;8.540;2024-02-23T12:02:35;6.10;99.90
21861;DHT22;11095;48.066;8.540;2024-02-23T12:05:00;6.20;99.90
21861;DHT22;11095;48.066;8.540;2024-02-23T12:07:27;6.20;99.90
21861;DHT22;11095;48.066;8.540;2024-02-23T12:09:55;6.10;99.90
21861;DHT22;11095;48.066;8.540;2024-02-23T12:12:20;5.80;99.90
21861;DHT22;11095;48.066;8.540;2024-02-23T12:14:46;5.80;99.90
21861;DHT22;11095;48.066;8.540;2024-02-23T12:17:13;5.80;99.90
21861;DHT22;11095;48.066;8.540;2024-02-23T12:19:41;5.90;99.90
21861;DHT22;11095;48.066;8.540;2024-02-23T12:22:07;6.10;99.90
21861;DHT22;11095;48.066;8.540;2024-02-23T12:24:34;6.20;99.90
21861;DHT22;11095;48.066;8.540;2024-02-23T12:27:00;6.40;99.90
21861;DHT22;11095;48.066;8.540;2024-02-23T12:29:25;6.50;99.90
21861;DHT22;11095;48.066;8.540;2024-02-23T12:32:05;6.50;99.90
21861;DHT22;11095;48.066;8.540;2024-02-23T12:34:31;6.40;99.90
21861;DHT22;11095;48.066;8.540;2024-02-23T12:36:57;6.30;99.90
21861;DHT22;11095;48.066;8.540;2024-02-23T12:39:22;6.60;99.90
21861;DHT22;11095;48.066;8.540;2024-02-23T12:41:48;6.90;99.90
21861;DHT22;11095;48.066;8.540;2024-02-23T12:44:14;7.20;99.90
21861;DHT22;11095;48.066;8.540;2024-02-23T12:46:40;7.50;99.90
21861;DHT22;11095;48.066;8.540;2024-02-23T12:49:05;7.60;99.90
21861;DHT22;11095;48.066;8.540;2024-02-23T12:51:31;7.70;99.90
21861;DHT22;11095;48.066;8.540;2024-02-23T12:53:57;7.60;99.90
21861;DHT22;11095;48.066;8.540;2024-02-23T12:56:22;7.60;99.90
21861;DHT22;11095;48.066;8.540;2024-02-23T12:58:48;7.60;99.90
21861;DHT22;11095;48.066;8.540;2024-02-23T13:01:13;7.60;99.90
21861;DHT22;11095;48.066;8.540;2024-02-23T13:03:40;7.50;99.90
21861;DHT22;11095;48.066;8.540;2024-02-23T13:06:06;7.40;99.90
21861;DHT22;11095;48.066;8.540;2024-02-23T13:08:32;7.30;99.90
21861;DHT22;11095;48.066;8.540;2024-02-23T13:10:58;7.40;99.90
21861;DHT22;11095;48.066;8.540;2024-02-23T13:13:24;7.70;99.90
21861;DHT22;11095;48.066;8.540;2024-02-23T13:15:51;7.90;99.90
21861;DHT22;11095;48.066;8.540;2024-02-23T13:18:18;7.90;99.90
21861;DHT22;11095;48.066;8.540;2024-02-23T13:20:45;7.60;99.90
21861;DHT22;11095;48.066;8.540;2024-02-23T13:23:11;7.30;99.90
21861;DHT22;11095;48.066;8.540;2024-02-23T13:25:40;7.10;99.90
21861;DHT22;11095;48.066;8.540;2024-02-23T13:28:06;7.00;99.90
21861;DHT22;11095;48.066;8.540;2024-02-23T13:30:32;6.90;99.90
21861;DHT22;11095;48.066;8.540;2024-02-23T13:32:58;6.90;99.90
21861;DHT22;11095;48.066;8.540;2024-02-23T13:35:24;6.90;99.90
21861;DHT22;11095;48.066;8.540;2024-02-23T13:37:50;6.60;99.90
21861;DHT22;11095;48.066;8.540;2024-02-23T13:40:16;6.70;99.90
21861;DHT22;11095;48.066;8.540;2024-02-23T13:42:41;6.80;99.90
21861;DHT22;11095;48.066;8.540;2024-02-23T13:45:08;6.80;99.90
21861;DHT22;11095;48.066;8.540;2024-02-23T13:47:34;6.90;99.90
21861;DHT22;11095;48.066;8.540;2024-02-23T13:50:00;6.90;99.90
21861;DHT22;11095;48.066;8.540;2024-02-23T13:52:26;7.00;99.90
21861;DHT22;11095;48.066;8.540;2024-02-23T13:54:52;7.00;99.90
21861;DHT22;11095;48.066;8.540;2024-02-23T13:57:17;7.00;99.90
21861;DHT22;11095;48.066;8.540;2024-02-23T13:59:43;7.00;99.90
21861;DHT22;11095;48.066;8.540;2024-02-23T14:02:09;6.80;99.90
21861;DHT22;11095;48.066;8.540;2024-02-23T14:04:34;6.60;99.90
21861;DHT22;11095;48.066;8.540;2024-02-23T14:07:01;6.50;99.90
21861;DHT22;11095;48.066;8.540;2024-02-23T14:09:26;6.40;99.90
21861;DHT22;11095;48.066;8.540;2024-02-23T14:11:52;6.30;99.90
21861;DHT22;11095;48.066;8.540;2024-02-23T14:14:17;6.30;99.90
21861;DHT22;11095;48.066;8.540;2024-02-23T14:16:43;6.20;99.90
21861;DHT22;11095;48.066;8.540;2024-02-23T14:19:09;6.30;99.90
21861;DHT22;11095;48.066;8.540;2024-02-23T14:21:35;6.40;99.90
21861;DHT22;11095;48.066;8.540;2024-02-23T14:24:02;6.30;99.90
21861;DHT22;11095;48.066;8.540;2024-02-23T14:26:28;6.30;99.90
21861;DHT22;11095;48.066;8.540;2024-02-23T14:28:54;6.30;99.90
21861;DHT22;11095;48.066;8.540;2024-02-23T14:31:19;6.40;99.90
21861;DHT22;11095;48.066;8.540;2024-02-23T14:33:45;6.40;99.90
21861;DHT22;11095;48.066;8.540;2024-02-23T14:36:10;6.40;99.90
21861;DHT22;11095;48.066;8.540;2024-02-23T14:38:36;6.30;99.90
21861;DHT22;11095;48.066;8.540;2024-02-23T14:41:01;6.20;99.90
21861;DHT22;11095;48.066;8.540;2024-02-23T14:43:27;6.20;99.90
21861;DHT22;11095;48.066;8.540;2024-02-23T14:45:52;6.20;99.90
21861;DHT22;11095;48.066;8.540;2024-02-23T14:48:18;6.10;99.90
21861;DHT22;11095;48.066;8.540;2024-02-23T14:50:44;6.10;99.90
21861;DHT22;11095;48.066;8.540;2024-02-23T14:53:10;6.10;99.90
21861;DHT22;11095;48.066;8.540;2024-02-23T14:55:37;6.10;99.90
21861;DHT22;11095;48.066;8.540;2024-02-23T14:58:02;6.10;99.90
21861;DHT22;11095;48.066;8.540;2024-02-23T15:00:28;6.20;99.90
21861;DHT22;11095;48.066;8.540;2024-02-23T15:02:56;6.20;99.90
21861;DHT22;11095;48.066;8.540;2024-02-23T15:05:22;6.10;99.90
21861;DHT22;11095;48.066;8.540;2024-02-23T15:07:48;6.00;99.90
21861;DHT22;11095;48.066;8.540;2024-02-23T15:10:13;5.90;99.90
21861;DHT22;11095;48.066;8.540;2024-02-23T15:12:39;5.80;99.90
21861;DHT22;11095;48.066;8.540;2024-02-23T15:15:05;5.80;99.90
21861;DHT22;11095;48.066;8.540;2024-02-23T15:17:32;5.70;99.90
21861;DHT22;11095;48.066;8.540;2024-02-23T15:19:58;5.60;99.90
21861;DHT22;11095;48.066;8.540;2024-02-23T15:22:23;5.50;99.90
21861;DHT22;11095;48.066;8.540;2024-02-23T15:24:51;5.40;99.90
21861;DHT22;11095;48.066;8.540;2024-02-23T15:27:16;5.40;99.90
21861;DHT22;11095;48.066;8.540;2024-02-23T15:29:42;5.40;99.90
21861;DHT22;11095;48.066;8.540;2024-02-23T15:32:08;5.40;99.90
21861;DHT22;11095;48.066;8.540;2024-02-23T15:34:34;5.40;99.90
21861;DHT22;11095;48.066;8.540;2024-02-23T15:36:59;5.40;99.90
21861;DHT22;11095;48.066;8.540;2024-02-23T15:39:25;5.40;99.90